Details From EGPF - Glasgow
To EGAA - Belfast Aldergrove
Flight Number -
Tags decoded
Created
Modified
Stats Distance 104 nm / 192 km
Max Altitude 0 ft / 0 m
Waypoints 4
Social Downloads 1
Likes 0
Share

Download

Looking for another format? Having issues loading an existing format? Contact us
Advertisement - Login to hide

Notes

Requested: EGPF TRN P600 BLACA EGAA Unmatched points: P600

Route

EGPF TRN BLACA EGAA

ID Type Via Altitude (ft/m) Position (lat/lon) Dist (leg/tot) Name
O EGPF APT - 0 / 0 55.87173 / -4.43365 - / 0 nm Glasgow
TRN VOR - 0 / 0 55.31333 / -4.78389 35 / 35 nm TURNBERRY VOR-DME
BLACA FIX - 0 / 0 54.88259 / -5.16405 28 / 64 nm
O EGAA APT - 0 / 0 54.65388 / -6.22001 39 / 103 nm Belfast Aldergrove

Altitude Profile

Advertisement - Login to hide

EGPF

Details ICAO EGPF (GLA)
Name Glasgow
Region United Kingdom
Timezone Europe/London (UTC+1.0)
Stats Elevation 26 ft / 8 m (AMSL)
Location 55.871700° -4.433700°
Runways 1
Magnetic Variation 2.310° W

METAR

EGPF 290720Z AUTO VRB03KT 9999 NCD 17/11 Q1028

Decode

TAF

TAF EGPF 290454Z 2906/3006 VRB03KT CAVOK PROB30 TEMPO 2911/2918 17010KT PROB30 TEMPO 3000/3006 4000 BR

Decode

Departure Runways

ID Width Length Bearing (true/mag) Surface Threshold Overrun Markings Lighting
05 148 ft / 45 m 8,699 ft / 2,651 m 46.34° / 48.64° ASPHALT 0 ft / 0 m 489 ft / 149 m PREC-APP CENTERLINE EDGE THRESHOLD MALSF
23 148 ft / 45 m 8,699 ft / 2,651 m 226.36° / 228.67° ASPHALT 974 ft / 297 m 0 ft / 0 m PREC-APP CENTERLINE EDGE THRESHOLD MALSF

EGAA

Details ICAO EGAA (BFS)
Name Belfast International
Region United Kingdom
Timezone Europe/London (UTC+1.0)
Stats Elevation 268 ft / 82 m (AMSL)
Location 54.653900° -6.219940°
Runways 2
Magnetic Variation 2.824° W

METAR

EGAA 290720Z 15009KT CAVOK 18/11 Q1026

Decode

TAF

TAF EGAA 290500Z 2906/3006 15009KT CAVOK= TAF EGPD 290454Z 2906/3006 VRB03KT 9999 FEW040 TEMPO 2909/2918 15010KT PROB30 TEMPO 2923/3006 3000 BR MIFG

Decode

Destination Runways

ID Width Length Bearing (true/mag) Surface Threshold Overrun Markings Lighting
07 147 ft / 45 m 9,124 ft / 2,781 m 65.01° / 67.84° ASPHALT 0 ft / 0 m 0 ft / 0 m APP CENTERLINE EDGE THRESHOLD CALVERT
17 148 ft / 45 m 5,909 ft / 1,801 m 161.99° / 164.82° ASPHALT 525 ft / 160 m 0 ft / 0 m PREC-APP EDGE THRESHOLD CALVERT
25 147 ft / 45 m 9,124 ft / 2,781 m 245.05° / 247.87° ASPHALT 0 ft / 0 m 0 ft / 0 m PREC-APP CENTERLINE EDGE THRESHOLD CALVERT TDZ
35 148 ft / 45 m 5,909 ft / 1,801 m 342.00° / 344.82° ASPHALT 502 ft / 153 m 0 ft / 0 m APP EDGE THRESHOLD MALS

Approach Navaids

Runway Type Ident Frequency Range Bearing (true/mag) Slope Elevation
17 DME IFT 110.90 MHz 18 nm / 33 km - - 253 ft / 77 m (AMSL)
17 GS IFT 110.90 MHz 10 nm / 19 km 162.97° / 165.80 ° 3.00° 253 ft / 77 m (AMSL)
17 LOC-ILS IFT 110.90 MHz 18 nm / 33 km 162.00° / 164.82 ° - 258 ft / 79 m (AMSL)
25 OM OM - - 245.03° / 247.85 ° - 268 ft / 82 m (AMSL)
25 DME IAG 109.90 MHz 18 nm / 33 km - - 305 ft / 93 m (AMSL)
25 LOC-ILS IAG 109.90 MHz 18 nm / 33 km 245.01° / 247.84 ° - 206 ft / 63 m (AMSL)
25 GS IAG 109.90 MHz 10 nm / 19 km 245.06° / 247.88 ° 3.00° 305 ft / 93 m (AMSL)

Popular Alternatives